createdAt,value
2022-12-31T00:00:16.470Z,16.52
2022-12-31T00:02:43.992Z,10.07
2022-12-31T00:05:11.574Z,11.80
2022-12-31T00:10:05.035Z,14.05
2022-12-31T00:12:31.958Z,13.98
2022-12-31T00:14:59.153Z,14.07
2022-12-31T00:17:26.444Z,15.50
2022-12-31T00:19:53.705Z,11.40
2022-12-31T00:22:21.023Z,10.95
2022-12-31T00:24:48.021Z,14.77
2022-12-31T00:27:15.332Z,15.98
2022-12-31T00:29:42.391Z,12.57
2022-12-31T00:32:09.555Z,11.43
2022-12-31T00:34:36.661Z,12.70
2022-12-31T00:37:04.731Z,14.60
2022-12-31T00:39:31.772Z,14.00
2022-12-31T00:41:58.880Z,18.20
2022-12-31T00:44:25.846Z,11.45
2022-12-31T00:46:53.020Z,15.25
2022-12-31T00:49:19.908Z,13.55
2022-12-31T00:51:47.476Z,13.02
2022-12-31T00:54:15.310Z,14.80
2022-12-31T00:56:42.280Z,10.02
2022-12-31T00:59:09.249Z,11.65
2022-12-31T01:01:39.682Z,15.95
2022-12-31T01:04:13.036Z,11.10
2022-12-31T01:06:41.009Z,13.07
2022-12-31T01:09:09.091Z,12.95
2022-12-31T01:11:36.368Z,12.02
2022-12-31T01:14:07.704Z,14.25
2022-12-31T01:16:42.125Z,11.82
2022-12-31T01:19:12.614Z,13.23
2022-12-31T01:21:41.111Z,15.48
2022-12-31T01:24:09.426Z,16.27
2022-12-31T01:26:37.564Z,16.92
2022-12-31T01:29:06.029Z,13.90
2022-12-31T01:31:38.006Z,17.55
2022-12-31T01:34:07.640Z,13.85
2022-12-31T01:36:36.465Z,14.50
2022-12-31T01:39:06.956Z,12.13
2022-12-31T01:41:38.992Z,13.23
2022-12-31T01:44:11.972Z,18.55
2022-12-31T01:46:47.612Z,16.35
2022-12-31T01:49:17.449Z,12.65
2022-12-31T01:51:52.669Z,14.00
2022-12-31T01:54:22.823Z,14.63
2022-12-31T01:56:52.743Z,13.48
2022-12-31T01:59:22.568Z,12.63
2022-12-31T02:01:53.073Z,16.48
2022-12-31T02:04:25.470Z,14.63
2022-12-31T02:06:57.469Z,16.17
2022-12-31T02:09:26.099Z,10.75
2022-12-31T02:11:53.865Z,32.75
2022-12-31T02:14:29.077Z,19.55
2022-12-31T02:17:34.974Z,16.92
2022-12-31T02:20:38.697Z,12.75
2022-12-31T02:23:42.382Z,20.10
2022-12-31T02:26:31.496Z,25.92
2022-12-31T02:29:42.882Z,19.88
2022-12-31T02:32:17.834Z,15.68
2022-12-31T02:34:59.294Z,15.85
2022-12-31T02:37:30.547Z,9.02
2022-12-31T02:39:58.986Z,11.25
2022-12-31T02:42:26.046Z,13.63
2022-12-31T02:44:53.071Z,25.33
2022-12-31T02:47:34.850Z,50.97
2022-12-31T02:50:11.046Z,26.40
2022-12-31T02:53:19.247Z,31.38
2022-12-31T02:56:21.666Z,25.75
2022-12-31T02:59:27.384Z,13.70
2022-12-31T03:02:14.953Z,8.70
2022-12-31T03:04:54.285Z,5.40
2022-12-31T03:07:24.522Z,12.05
2022-12-31T03:09:51.551Z,12.90
2022-12-31T03:12:40.478Z,8.73
2022-12-31T03:15:20.297Z,7.75
2022-12-31T03:17:59.950Z,12.48
2022-12-31T03:20:50.833Z,13.32
2022-12-31T03:23:24.927Z,7.63
2022-12-31T03:25:53.579Z,12.18
2022-12-31T03:28:24.336Z,9.70
2022-12-31T03:31:03.021Z,7.38
2022-12-31T03:33:37.005Z,9.38
2022-12-31T03:36:10.642Z,12.40
2022-12-31T03:38:37.761Z,5.57
2022-12-31T03:41:04.946Z,9.20
2022-12-31T03:43:32.011Z,14.05
2022-12-31T03:46:01.281Z,16.10
2022-12-31T03:48:28.772Z,14.10
2022-12-31T03:50:55.747Z,14.00
2022-12-31T03:53:22.838Z,9.15
2022-12-31T03:55:53.636Z,16.00
2022-12-31T03:58:21.945Z,13.68
2022-12-31T04:00:49.502Z,15.40
2022-12-31T04:03:16.748Z,7.65
2022-12-31T04:05:43.807Z,13.02
2022-12-31T04:08:10.857Z,8.18
2022-12-31T04:10:37.855Z,8.70
2022-12-31T04:13:06.232Z,15.50
2022-12-31T04:15:33.255Z,7.70
2022-12-31T04:18:00.435Z,18.33
2022-12-31T04:20:27.489Z,11.93
2022-12-31T04:22:54.544Z,11.32
2022-12-31T04:25:21.513Z,19.02
2022-12-31T04:27:48.641Z,11.77
2022-12-31T04:30:15.805Z,19.95
2022-12-31T04:32:42.834Z,11.95
2022-12-31T04:35:11.009Z,15.20
2022-12-31T04:37:38.116Z,13.07
2022-12-31T04:40:07.101Z,15.93
2022-12-31T04:42:35.291Z,7.70
2022-12-31T04:45:02.331Z,7.82
2022-12-31T04:47:30.166Z,9.60
2022-12-31T04:49:57.496Z,11.20
2022-12-31T04:52:24.848Z,14.13
2022-12-31T04:54:51.870Z,20.85
2022-12-31T04:57:18.939Z,15.93
2022-12-31T04:59:46.080Z,26.23
2022-12-31T05:02:13.464Z,46.90
2022-12-31T05:04:40.722Z,24.20
2022-12-31T05:07:08.009Z,27.42
2022-12-31T05:09:35.368Z,50.05
2022-12-31T05:12:02.375Z,28.95
2022-12-31T05:14:29.509Z,14.52
2022-12-31T05:16:59.693Z,17.15
2022-12-31T05:19:27.095Z,17.42
2022-12-31T05:22:17.458Z,26.38
2022-12-31T05:24:44.826Z,14.10
2022-12-31T05:27:12.083Z,22.52
2022-12-31T05:29:39.210Z,21.63
2022-12-31T05:32:06.452Z,16.52
2022-12-31T05:34:33.533Z,17.48
2022-12-31T05:37:00.593Z,21.35
2022-12-31T05:39:27.674Z,27.95
2022-12-31T05:41:54.995Z,21.88
2022-12-31T05:44:22.147Z,16.95
2022-12-31T05:46:49.235Z,20.77
2022-12-31T05:49:16.703Z,14.45
2022-12-31T05:51:44.042Z,13.00
2022-12-31T05:54:12.603Z,12.45
2022-12-31T05:56:39.925Z,14.90
2022-12-31T05:59:07.138Z,14.15
2022-12-31T06:01:34.528Z,15.73
2022-12-31T06:04:01.812Z,14.68
2022-12-31T06:06:28.785Z,14.13
2022-12-31T06:08:56.281Z,12.40
2022-12-31T06:11:23.541Z,18.77
2022-12-31T06:13:51.099Z,17.40
2022-12-31T06:16:18.470Z,10.57
2022-12-31T06:18:50.650Z,14.40
2022-12-31T06:21:19.907Z,11.18
2022-12-31T06:23:48.008Z,15.55
2022-12-31T06:26:16.565Z,16.63
2022-12-31T06:28:43.717Z,16.73
2022-12-31T06:31:13.737Z,17.17
2022-12-31T06:33:41.727Z,13.43
2022-12-31T06:36:12.682Z,16.13
2022-12-31T06:38:41.317Z,20.30
2022-12-31T06:41:14.087Z,14.00
2022-12-31T06:43:42.202Z,15.18
2022-12-31T06:46:12.514Z,13.65
2022-12-31T06:48:43.164Z,16.08
2022-12-31T06:51:17.412Z,15.90
2022-12-31T06:53:46.123Z,15.25
2022-12-31T06:56:26.617Z,14.98
2022-12-31T06:58:58.501Z,16.83
2022-12-31T07:01:41.473Z,14.27
2022-12-31T07:04:31.501Z,13.05
2022-12-31T07:07:13.254Z,18.25
2022-12-31T07:09:59.123Z,12.73
2022-12-31T07:12:52.708Z,17.98
2022-12-31T07:15:19.904Z,15.85
2022-12-31T07:18:24.594Z,18.20
2022-12-31T07:20:52.153Z,17.17
2022-12-31T07:23:19.864Z,14.90
2022-12-31T07:26:35.176Z,18.67
2022-12-31T07:29:23.609Z,19.70
2022-12-31T07:31:50.770Z,22.40
2022-12-31T07:34:44.773Z,22.20
2022-12-31T07:37:23.998Z,18.83
2022-12-31T07:40:16.225Z,16.02
2022-12-31T07:42:52.523Z,27.67
2022-12-31T07:45:35.615Z,27.10
2022-12-31T07:48:03.367Z,26.77
2022-12-31T07:50:30.897Z,26.58
2022-12-31T07:52:58.423Z,31.10
2022-12-31T07:55:26.258Z,34.17
2022-12-31T07:58:06.985Z,28.15
2022-12-31T08:00:34.634Z,30.73
2022-12-31T08:03:02.111Z,30.75
2022-12-31T08:06:05.333Z,26.10
2022-12-31T08:08:33.165Z,32.63
2022-12-31T08:11:28.483Z,28.75
2022-12-31T08:14:00.735Z,28.33
2022-12-31T08:16:29.269Z,35.22
2022-12-31T08:19:01.104Z,27.00
2022-12-31T08:21:58.669Z,26.77
2022-12-31T08:24:27.549Z,29.05
2022-12-31T08:27:30.022Z,28.73
2022-12-31T08:30:12.542Z,28.10
2022-12-31T08:32:53.118Z,24.17
2022-12-31T08:36:08.723Z,27.27
2022-12-31T08:39:05.505Z,23.60
2022-12-31T08:41:42.636Z,22.92
2022-12-31T08:44:35.315Z,22.27
2022-12-31T08:47:27.346Z,19.60
2022-12-31T08:49:55.976Z,23.23
2022-12-31T08:52:25.884Z,16.98
2022-12-31T08:54:53.987Z,17.63
2022-12-31T08:57:37.337Z,20.13
2022-12-31T09:00:13.476Z,13.68
2022-12-31T09:03:12.038Z,12.77
2022-12-31T09:05:53.207Z,18.38
2022-12-31T09:08:43.608Z,17.02
2022-12-31T09:11:22.905Z,17.27
2022-12-31T09:14:14.854Z,21.05
2022-12-31T09:17:10.974Z,17.85
2022-12-31T09:19:38.605Z,13.30
2022-12-31T09:22:06.695Z,16.08
2022-12-31T09:24:35.690Z,14.32
2022-12-31T09:27:50.172Z,14.98
2022-12-31T09:30:19.682Z,15.68
2022-12-31T09:33:01.273Z,12.38
2022-12-31T09:35:39.043Z,13.97
2022-12-31T09:38:31.902Z,13.65
2022-12-31T09:41:16.721Z,10.43
2022-12-31T09:44:03.104Z,12.30
2022-12-31T09:46:59.015Z,10.25
2022-12-31T09:49:39.707Z,12.10
2022-12-31T09:52:31.439Z,16.10
2022-12-31T09:55:07.825Z,7.72
2022-12-31T09:57:56.614Z,12.75
2022-12-31T10:00:34.772Z,13.15
2022-12-31T10:03:22.170Z,13.13
2022-12-31T10:06:27.396Z,15.13
2022-12-31T10:09:18.162Z,14.70
2022-12-31T10:12:06.739Z,14.82
2022-12-31T10:15:04.230Z,13.55
2022-12-31T10:17:49.612Z,13.35
2022-12-31T10:20:54.797Z,12.30
2022-12-31T10:23:59.743Z,10.48
2022-12-31T10:26:37.621Z,11.70
2022-12-31T10:29:47.563Z,12.40
2022-12-31T10:32:19.814Z,13.93
2022-12-31T10:35:23.231Z,11.60
2022-12-31T10:38:00.333Z,11.23
2022-12-31T10:40:59.678Z,11.27
2022-12-31T10:44:04.967Z,14.05
2022-12-31T10:46:55.724Z,12.13
2022-12-31T10:49:44.393Z,12.35
2022-12-31T10:52:27.034Z,12.55
2022-12-31T10:55:04.808Z,8.80
2022-12-31T10:58:03.829Z,11.43
2022-12-31T11:00:48.917Z,14.82
2022-12-31T11:03:40.253Z,12.95
2022-12-31T11:06:30.729Z,13.15
2022-12-31T11:09:17.201Z,12.18
2022-12-31T11:12:11.786Z,12.13
2022-12-31T11:14:59.398Z,11.65
2022-12-31T11:17:40.118Z,10.38
2022-12-31T11:20:37.461Z,10.52
2022-12-31T11:23:31.821Z,10.10
2022-12-31T11:25:59.771Z,9.52
2022-12-31T11:28:59.598Z,10.98
2022-12-31T11:31:42.202Z,10.25
2022-12-31T11:37:17.716Z,8.40
2022-12-31T11:40:02.514Z,10.07
2022-12-31T11:42:47.823Z,9.77
2022-12-31T11:45:23.147Z,8.27
2022-12-31T11:51:27.274Z,12.43
2022-12-31T11:54:33.508Z,9.70
2022-12-31T11:57:25.156Z,8.95
2022-12-31T12:00:21.744Z,8.05
2022-12-31T12:02:58.900Z,11.18
2022-12-31T12:05:28.537Z,10.32
2022-12-31T12:07:57.398Z,9.93
2022-12-31T12:10:35.287Z,10.30
2022-12-31T12:13:13.603Z,10.30
2022-12-31T12:15:49.874Z,6.75
2022-12-31T12:18:29.225Z,9.75
2022-12-31T12:21:14.993Z,11.40
2022-12-31T12:24:04.021Z,7.70
2022-12-31T12:26:42.858Z,6.43
2022-12-31T12:29:16.129Z,8.35
2022-12-31T12:32:13.732Z,12.40
2022-12-31T12:34:49.448Z,13.63
2022-12-31T12:37:36.588Z,13.25
2022-12-31T12:40:31.413Z,14.38
2022-12-31T12:43:03.680Z,10.73
2022-12-31T12:45:51.405Z,12.35
2022-12-31T12:48:31.616Z,13.63
2022-12-31T12:51:03.867Z,12.07
2022-12-31T12:53:57.770Z,17.90
2022-12-31T12:56:31.455Z,13.73
2022-12-31T12:59:36.891Z,10.57
2022-12-31T13:02:24.368Z,9.80
2022-12-31T13:05:01.628Z,10.30
2022-12-31T13:08:06.979Z,11.80
2022-12-31T13:10:51.156Z,12.07
2022-12-31T13:13:43.802Z,14.80
2022-12-31T13:16:35.640Z,12.75
2022-12-31T13:19:17.166Z,13.43
2022-12-31T13:21:47.606Z,10.25
2022-12-31T13:24:15.581Z,13.68
2022-12-31T13:26:55.157Z,12.15
2022-12-31T13:29:28.456Z,12.27
2022-12-31T13:34:39.880Z,9.25
2022-12-31T13:37:35.020Z,12.40
2022-12-31T13:40:13.763Z,14.95
2022-12-31T13:42:53.246Z,10.27
2022-12-31T13:45:32.782Z,13.75
2022-12-31T13:48:22.797Z,14.27
2022-12-31T13:51:02.057Z,16.65
2022-12-31T13:53:38.721Z,13.90
2022-12-31T13:56:24.579Z,15.82
2022-12-31T13:59:04.555Z,15.07
2022-12-31T14:02:04.032Z,14.95
2022-12-31T14:04:40.835Z,11.88
2022-12-31T14:07:26.645Z,14.95
2022-12-31T14:09:59.968Z,12.65
2022-12-31T14:12:57.311Z,15.95
2022-12-31T14:15:33.892Z,17.55
2022-12-31T14:18:31.472Z,21.30
2022-12-31T14:21:03.219Z,7.90
2022-12-31T14:23:53.884Z,17.67
2022-12-31T14:26:38.603Z,15.07
2022-12-31T14:29:19.268Z,13.75
2022-12-31T14:31:49.607Z,43.63
2022-12-31T14:34:36.277Z,20.48
2022-12-31T14:37:28.475Z,29.38
2022-12-31T14:40:08.133Z,30.77
2022-12-31T14:43:11.186Z,20.77
2022-12-31T14:46:00.279Z,18.35
2022-12-31T14:48:43.484Z,20.83
2022-12-31T14:51:13.078Z,22.27
2022-12-31T14:53:40.405Z,20.95
2022-12-31T14:56:30.153Z,21.73
2022-12-31T14:59:01.939Z,12.93
2022-12-31T15:01:29.954Z,19.70
2022-12-31T15:03:58.406Z,30.08
2022-12-31T15:06:50.077Z,20.65
2022-12-31T15:09:17.099Z,29.45
2022-12-31T15:12:11.999Z,37.38
2022-12-31T15:14:42.006Z,30.85
2022-12-31T15:17:18.046Z,19.73
2022-12-31T15:19:53.169Z,30.60
2022-12-31T15:22:36.910Z,39.08
2022-12-31T15:25:24.491Z,44.42
2022-12-31T15:27:53.316Z,14.93
2022-12-31T15:30:32.929Z,19.23
2022-12-31T15:33:05.462Z,20.80
2022-12-31T15:35:45.781Z,20.40
2022-12-31T15:38:15.580Z,40.53
2022-12-31T15:40:51.076Z,30.65
2022-12-31T15:43:33.078Z,31.08
2022-12-31T15:46:00.901Z,14.90
2022-12-31T15:48:38.622Z,14.77
2022-12-31T15:51:08.114Z,16.13
2022-12-31T15:53:41.654Z,23.17
2022-12-31T15:56:19.161Z,33.72
2022-12-31T15:58:47.760Z,25.83
2022-12-31T16:01:21.176Z,28.38
2022-12-31T16:03:55.842Z,40.22
2022-12-31T16:06:23.365Z,37.78
2022-12-31T16:08:50.905Z,29.73
2022-12-31T16:11:18.912Z,55.28
2022-12-31T16:13:49.956Z,55.78
2022-12-31T16:16:22.052Z,25.73
2022-12-31T16:18:53.358Z,28.17
2022-12-31T16:21:34.403Z,80.53
2022-12-31T16:24:07.690Z,164.05
2022-12-31T16:26:48.800Z,191.88
2022-12-31T16:29:19.337Z,107.70
2022-12-31T16:31:48.622Z,51.17
2022-12-31T16:34:19.652Z,26.30
2022-12-31T16:37:07.809Z,22.70
2022-12-31T16:39:39.877Z,24.80
2022-12-31T16:42:19.048Z,32.45
2022-12-31T16:44:47.618Z,19.77
2022-12-31T16:47:24.250Z,30.60
2022-12-31T16:50:01.774Z,27.83
2022-12-31T16:52:36.566Z,20.20
2022-12-31T16:55:10.640Z,15.82
2022-12-31T16:57:38.552Z,15.02
2022-12-31T17:00:07.841Z,18.63
2022-12-31T17:02:39.515Z,28.02
2022-12-31T17:05:19.945Z,18.02
2022-12-31T17:07:47.825Z,17.45
2022-12-31T17:10:17.089Z,13.80
2022-12-31T17:13:27.038Z,13.82
2022-12-31T17:15:43.970Z,15.98
2022-12-31T17:18:20.164Z,17.00
2022-12-31T17:20:48.023Z,20.08
2022-12-31T17:23:25.245Z,13.68
2022-12-31T17:25:59.621Z,31.58
2022-12-31T17:28:32.381Z,15.52
2022-12-31T17:33:30.883Z,16.15
2022-12-31T17:36:15.160Z,13.35
2022-12-31T17:38:42.794Z,8.30
2022-12-31T17:41:30.090Z,10.63
2022-12-31T17:43:58.138Z,9.70
2022-12-31T17:46:25.879Z,12.73
2022-12-31T17:49:03.075Z,9.18
2022-12-31T17:51:30.400Z,12.85
2022-12-31T17:54:00.371Z,13.73
2022-12-31T17:56:27.540Z,7.88
2022-12-31T17:58:54.990Z,9.93
2022-12-31T18:01:23.929Z,9.98
2022-12-31T18:03:51.293Z,15.13
2022-12-31T18:06:19.733Z,11.02
2022-12-31T18:08:47.510Z,9.07
2022-12-31T18:11:17.682Z,9.45
2022-12-31T18:13:44.913Z,14.30
2022-12-31T18:16:12.148Z,6.22
2022-12-31T18:18:41.190Z,7.47
2022-12-31T18:21:18.321Z,8.45
2022-12-31T18:23:47.228Z,9.55
2022-12-31T18:26:16.780Z,8.27
2022-12-31T18:28:44.069Z,10.60
2022-12-31T18:31:16.817Z,11.50
2022-12-31T18:33:47.054Z,10.45
2022-12-31T18:36:16.098Z,12.98
2022-12-31T18:38:43.513Z,12.88
2022-12-31T18:41:34.888Z,9.65
2022-12-31T18:44:02.226Z,12.88
2022-12-31T18:46:29.696Z,12.30
2022-12-31T18:48:56.773Z,11.48
2022-12-31T18:51:31.444Z,11.23
2022-12-31T18:54:00.967Z,11.57
2022-12-31T18:56:28.400Z,11.23
2022-12-31T18:58:55.531Z,14.02
2022-12-31T19:01:35.800Z,12.63
2022-12-31T19:04:11.441Z,10.85
2022-12-31T19:06:38.942Z,12.60
2022-12-31T19:09:13.161Z,13.23
2022-12-31T19:11:53.304Z,10.80
2022-12-31T19:14:24.186Z,10.52
2022-12-31T19:16:53.591Z,9.90
2022-12-31T19:19:21.335Z,8.68
2022-12-31T19:21:48.798Z,10.05
2022-12-31T19:24:19.934Z,8.00
2022-12-31T19:26:47.671Z,7.28
2022-12-31T19:29:23.600Z,7.22
2022-12-31T19:31:51.423Z,7.90
2022-12-31T19:34:18.898Z,9.02
2022-12-31T19:36:46.319Z,4.88
2022-12-31T19:39:17.631Z,9.43
2022-12-31T19:41:46.152Z,6.15
2022-12-31T19:44:17.929Z,9.57
2022-12-31T19:46:45.913Z,6.03
2022-12-31T19:49:14.323Z,9.00
2022-12-31T19:51:42.733Z,6.47
2022-12-31T19:54:12.868Z,9.15
2022-12-31T19:56:40.164Z,8.35
2022-12-31T19:59:09.754Z,11.63
2022-12-31T20:01:38.460Z,7.72
2022-12-31T20:04:05.812Z,10.77
2022-12-31T20:06:33.028Z,12.40
2022-12-31T20:09:00.180Z,5.85
2022-12-31T20:11:27.643Z,6.28
2022-12-31T20:13:55.423Z,4.55
2022-12-31T20:16:27.048Z,8.27
2022-12-31T20:18:55.327Z,9.45
2022-12-31T20:21:25.748Z,7.45
2022-12-31T20:23:54.961Z,7.32
2022-12-31T20:26:24.182Z,7.15
2022-12-31T20:28:52.245Z,8.35
2022-12-31T20:31:23.519Z,7.63
2022-12-31T20:33:50.939Z,8.65
2022-12-31T20:36:19.075Z,6.22
2022-12-31T20:38:47.159Z,6.97
2022-12-31T20:41:17.690Z,6.90
2022-12-31T20:43:46.153Z,8.85
2022-12-31T20:46:18.195Z,8.48
2022-12-31T20:48:47.042Z,8.57
2022-12-31T20:51:16.868Z,4.00
2022-12-31T20:53:59.159Z,8.23
2022-12-31T20:56:28.985Z,8.65
2022-12-31T20:58:56.492Z,8.15
2022-12-31T21:01:25.267Z,8.05
2022-12-31T21:04:09.649Z,6.32
2022-12-31T21:06:37.092Z,8.10
2022-12-31T21:09:06.951Z,11.65
2022-12-31T21:11:53.188Z,6.43
2022-12-31T21:14:20.597Z,6.28
2022-12-31T21:16:47.899Z,11.90
2022-12-31T21:19:15.179Z,9.55
2022-12-31T21:21:42.229Z,10.93
2022-12-31T21:24:09.983Z,7.78
2022-12-31T21:26:36.964Z,11.02
2022-12-31T21:29:04.447Z,8.00
2022-12-31T21:31:31.793Z,4.65
2022-12-31T21:33:59.127Z,9.75
2022-12-31T21:36:26.599Z,13.98
2022-12-31T21:38:53.923Z,11.02
2022-12-31T21:41:44.257Z,12.10
2022-12-31T21:44:11.707Z,11.73
2022-12-31T21:46:42.620Z,7.75
2022-12-31T21:49:22.093Z,13.75
2022-12-31T21:52:08.291Z,11.02
2022-12-31T21:54:53.907Z,10.73
2022-12-31T21:57:21.284Z,10.07
2022-12-31T22:00:40.435Z,11.95
2022-12-31T22:03:13.973Z,8.93
2022-12-31T22:06:06.051Z,13.57
2022-12-31T22:08:33.440Z,10.35
2022-12-31T22:11:00.646Z,9.70
2022-12-31T22:13:28.024Z,6.28
2022-12-31T22:16:03.880Z,12.75
2022-12-31T22:18:34.677Z,9.43
2022-12-31T22:21:05.854Z,12.57
2022-12-31T22:23:34.635Z,10.48
2022-12-31T22:26:02.976Z,13.88
2022-12-31T22:28:39.552Z,12.07
2022-12-31T22:31:11.773Z,12.02
2022-12-31T22:33:39.516Z,11.50
2022-12-31T22:36:10.730Z,11.13
2022-12-31T22:38:38.688Z,12.75
2022-12-31T22:41:08.796Z,14.48
2022-12-31T22:43:39.424Z,13.95
2022-12-31T22:46:08.544Z,14.40
2022-12-31T22:48:36.050Z,16.65
2022-12-31T22:51:03.577Z,15.50
2022-12-31T22:53:30.807Z,15.85
2022-12-31T22:55:58.841Z,13.95
2022-12-31T22:58:26.877Z,11.85
2022-12-31T23:00:54.933Z,11.55
2022-12-31T23:03:22.577Z,8.68
2022-12-31T23:05:54.421Z,14.40
2022-12-31T23:08:23.945Z,15.40
2022-12-31T23:11:00.597Z,16.08
2022-12-31T23:13:50.992Z,13.75
2022-12-31T23:16:38.869Z,11.90
2022-12-31T23:19:25.898Z,10.10
2022-12-31T23:22:12.607Z,12.55
2022-12-31T23:24:40.339Z,11.65
2022-12-31T23:27:10.112Z,15.27
2022-12-31T23:29:46.274Z,16.75
2022-12-31T23:32:16.474Z,10.05
2022-12-31T23:34:45.597Z,13.45
2022-12-31T23:37:14.426Z,12.77
2022-12-31T23:39:42.756Z,13.15
2022-12-31T23:42:10.808Z,9.68
2022-12-31T23:44:38.180Z,14.05
2022-12-31T23:47:08.596Z,12.82
2022-12-31T23:49:36.198Z,12.65
2022-12-31T23:52:03.731Z,11.45
2022-12-31T23:54:32.418Z,10.90
2022-12-31T23:56:59.911Z,13.48
2022-12-31T23:59:27.510Z,11.48
